createdAt,value
2019-04-04T00:00:31.018Z,0.80
2019-04-04T00:02:58.318Z,0.80
2019-04-04T00:05:26.236Z,1.10
2019-04-04T00:07:53.538Z,1.32
2019-04-04T00:10:20.804Z,0.90
2019-04-04T00:12:48.035Z,1.22
2019-04-04T00:15:15.521Z,1.20
2019-04-04T00:17:42.796Z,1.10
2019-04-04T00:20:09.995Z,1.30
2019-04-04T00:22:37.289Z,1.10
2019-04-04T00:25:04.960Z,1.00
2019-04-04T00:27:32.227Z,0.42
2019-04-04T00:29:59.526Z,0.40
2019-04-04T00:32:27.076Z,0.40
2019-04-04T00:34:54.566Z,0.35
2019-04-04T00:37:21.834Z,0.30
2019-04-04T00:39:49.139Z,0.30
2019-04-04T00:42:17.013Z,0.75
2019-04-04T00:44:44.793Z,1.00
2019-04-04T00:47:12.001Z,0.80
2019-04-04T00:49:39.228Z,0.50
2019-04-04T00:52:10.149Z,0.80
2019-04-04T00:54:35.720Z,1.25
2019-04-04T00:57:02.925Z,1.10
2019-04-04T00:59:30.228Z,0.65
2019-04-04T01:01:57.661Z,0.42
2019-04-04T01:04:25.037Z,0.80
2019-04-04T01:06:52.492Z,1.35
2019-04-04T01:09:19.716Z,1.80
2019-04-04T01:11:46.984Z,2.17
2019-04-04T01:14:14.207Z,2.35
2019-04-04T01:16:41.409Z,2.12
2019-04-04T01:19:10.007Z,1.55
2019-04-04T01:21:37.615Z,1.00
2019-04-04T01:24:04.921Z,1.10
2019-04-04T01:26:33.090Z,1.25
2019-04-04T01:29:01.136Z,1.40
2019-04-04T01:31:28.343Z,1.25
2019-04-04T01:33:55.840Z,1.10
2019-04-04T01:36:24.931Z,0.95
2019-04-04T01:38:52.036Z,0.40
2019-04-04T01:41:19.336Z,0.50
2019-04-04T01:43:46.612Z,0.82
2019-04-04T01:46:15.260Z,0.62
2019-04-04T01:48:42.914Z,0.50
2019-04-04T01:51:10.216Z,0.30
2019-04-04T01:53:37.493Z,0.40
2019-04-04T01:56:06.729Z,0.20
2019-04-04T01:58:33.643Z,0.90
2019-04-04T02:01:00.940Z,1.00
2019-04-04T02:03:28.136Z,1.00
2019-04-04T02:05:56.165Z,0.65
2019-04-04T02:08:24.280Z,0.70
2019-04-04T02:10:51.508Z,0.50
2019-04-04T02:13:18.701Z,1.40
2019-04-04T02:15:45.948Z,1.42
2019-04-04T02:18:13.196Z,1.90
2019-04-04T02:20:40.434Z,1.90
2019-04-04T02:23:07.713Z,2.20
2019-04-04T02:25:35.017Z,2.12
2019-04-04T02:28:02.216Z,2.12
2019-04-04T02:30:29.684Z,1.62
2019-04-04T02:32:59.742Z,0.62
2019-04-04T02:35:25.861Z,0.70
2019-04-04T02:37:55.544Z,0.90
2019-04-04T02:40:22.096Z,0.60
2019-04-04T02:42:53.856Z,0.45
2019-04-04T02:45:18.304Z,0.30
2019-04-04T02:47:50.295Z,0.23
2019-04-04T02:50:14.523Z,0.30
2019-04-04T02:52:45.725Z,0.20
2019-04-04T02:55:10.742Z,0.30
2019-04-04T02:57:41.169Z,0.30
2019-04-04T03:00:07.047Z,0.40
2019-04-04T03:02:36.249Z,0.20
2019-04-04T03:05:03.867Z,0.28
2019-04-04T03:07:31.241Z,0.20
2019-04-04T03:09:58.545Z,0.23
2019-04-04T03:12:26.860Z,0.10
2019-04-04T03:14:54.321Z,0.78
2019-04-04T03:17:21.617Z,2.02
2019-04-04T03:19:48.818Z,2.17
2019-04-04T03:22:16.116Z,1.85
2019-04-04T03:24:45.106Z,1.50
2019-04-04T03:27:12.325Z,0.90
2019-04-04T03:29:39.599Z,0.70
2019-04-04T03:32:13.262Z,0.53
2019-04-04T03:34:35.814Z,0.40
2019-04-04T03:37:05.952Z,0.40
2019-04-04T03:39:32.152Z,0.30
2019-04-04T03:41:59.462Z,0.30
2019-04-04T03:44:26.729Z,0.37
2019-04-04T03:46:54.037Z,0.20
2019-04-04T03:49:24.304Z,0.20
2019-04-04T03:51:50.253Z,0.50
2019-04-04T03:54:22.023Z,0.50
2019-04-04T03:56:48.093Z,1.27
2019-04-04T03:59:15.365Z,0.60
2019-04-04T04:01:45.362Z,0.45
2019-04-04T04:04:11.509Z,0.40
2019-04-04T04:06:41.532Z,0.30
2019-04-04T04:09:07.655Z,0.55
2019-04-04T04:11:37.358Z,0.60
2019-04-04T04:14:03.874Z,0.40
2019-04-04T04:16:34.961Z,0.40
2019-04-04T04:19:00.094Z,0.80
2019-04-04T04:21:27.285Z,0.85
2019-04-04T04:23:57.167Z,1.30
2019-04-04T04:26:23.677Z,1.10
2019-04-04T04:28:53.265Z,0.90
2019-04-04T04:31:19.822Z,0.47
2019-04-04T04:33:47.051Z,0.55
2019-04-04T04:36:15.797Z,0.50
2019-04-04T04:38:43.528Z,0.70
2019-04-04T04:41:10.806Z,0.70
2019-04-04T04:43:38.046Z,0.40
2019-04-04T04:46:05.331Z,0.45
2019-04-04T04:48:32.624Z,0.40
2019-04-04T04:51:00.000Z,0.40
2019-04-04T04:53:27.245Z,0.30
2019-04-04T04:55:54.830Z,0.20
2019-04-04T04:58:22.131Z,0.70
2019-04-04T05:00:49.332Z,0.50
2019-04-04T05:03:16.562Z,0.60
2019-04-04T05:05:43.822Z,0.28
2019-04-04T05:08:11.123Z,0.40
2019-04-04T05:10:38.649Z,0.37
2019-04-04T05:13:05.842Z,0.30
2019-04-04T05:15:33.206Z,0.60
2019-04-04T05:18:00.540Z,0.40
2019-04-04T05:20:29.853Z,0.30
2019-04-04T05:22:56.772Z,0.53
2019-04-04T05:25:24.003Z,0.50
2019-04-04T05:27:51.284Z,0.60
2019-04-04T05:30:20.214Z,0.93
2019-04-04T05:32:47.502Z,1.05
2019-04-04T05:35:15.281Z,0.68
2019-04-04T05:37:42.575Z,0.50
2019-04-04T05:40:10.966Z,0.60
2019-04-04T05:42:38.221Z,0.30
2019-04-04T05:45:08.494Z,0.50
2019-04-04T05:47:35.766Z,0.47
2019-04-04T05:50:03.581Z,0.45
2019-04-04T05:52:32.674Z,0.50
2019-04-04T05:54:59.791Z,0.30
2019-04-04T05:57:27.088Z,0.30
2019-04-04T05:59:55.971Z,0.40
2019-04-04T06:02:23.449Z,0.30
2019-04-04T06:04:53.609Z,0.60
2019-04-04T06:07:19.936Z,0.60
2019-04-04T06:09:47.258Z,0.60
2019-04-04T06:12:14.457Z,0.53
2019-04-04T06:14:41.762Z,0.60
2019-04-04T06:17:09.043Z,0.40
2019-04-04T06:19:36.331Z,0.70
2019-04-04T06:22:03.608Z,0.50
2019-04-04T06:24:30.880Z,0.40
2019-04-04T06:26:58.113Z,0.40
2019-04-04T06:29:25.308Z,0.40
2019-04-04T06:31:52.556Z,0.75
2019-04-04T06:34:19.825Z,0.55
2019-04-04T06:36:48.940Z,0.60
2019-04-04T06:39:16.053Z,0.60
2019-04-04T06:41:43.257Z,0.40
2019-04-04T06:44:12.752Z,0.60
2019-04-04T06:46:39.496Z,0.40
2019-04-04T06:49:07.038Z,0.60
2019-04-04T06:51:34.310Z,0.30
2019-04-04T06:54:01.560Z,0.23
2019-04-04T06:56:31.788Z,0.40
2019-04-04T06:58:58.030Z,0.53
2019-04-04T07:01:25.491Z,0.80
2019-04-04T07:03:52.890Z,0.88
2019-04-04T07:06:20.117Z,0.70
2019-04-04T07:08:47.357Z,0.70
2019-04-04T07:11:21.214Z,0.50
2019-04-04T07:13:43.464Z,0.50
2019-04-04T07:16:10.780Z,0.50
2019-04-04T07:18:37.981Z,0.80
2019-04-04T07:21:05.181Z,0.40
2019-04-04T07:23:32.601Z,0.33
2019-04-04T07:25:59.872Z,0.50
2019-04-04T07:28:27.240Z,0.50
2019-04-04T07:30:54.829Z,0.90
2019-04-04T07:33:22.109Z,1.00
2019-04-04T07:35:49.612Z,0.90
2019-04-04T07:38:17.005Z,0.80
2019-04-04T07:40:44.273Z,1.00
2019-04-04T07:43:11.549Z,1.17
2019-04-04T07:45:38.812Z,1.02
2019-04-04T07:48:06.085Z,1.20
2019-04-04T07:50:33.361Z,0.80
2019-04-04T07:53:04.082Z,0.85
2019-04-04T07:55:29.757Z,0.80
2019-04-04T07:57:57.020Z,0.60
2019-04-04T08:00:24.477Z,0.50
2019-04-04T08:02:51.747Z,0.70
2019-04-04T08:05:19.034Z,0.88
2019-04-04T08:07:46.417Z,0.57
2019-04-04T08:10:20.625Z,0.60
2019-04-04T08:12:42.555Z,0.70
2019-04-04T08:15:10.296Z,0.70
2019-04-04T08:17:37.578Z,0.78
2019-04-04T08:20:05.308Z,0.80
2019-04-04T08:22:32.622Z,1.05
2019-04-04T08:24:59.889Z,0.70
2019-04-04T08:27:27.171Z,0.55
2019-04-04T08:29:54.584Z,0.88
2019-04-04T08:32:21.852Z,0.70
2019-04-04T08:34:49.069Z,1.00
2019-04-04T08:37:16.385Z,0.70
2019-04-04T08:39:43.654Z,0.90
2019-04-04T08:42:10.857Z,0.90
2019-04-04T08:44:38.564Z,1.10
2019-04-04T08:47:05.768Z,0.90
2019-04-04T08:49:33.045Z,1.55
2019-04-04T08:52:00.297Z,1.20
2019-04-04T08:54:27.560Z,1.05
2019-04-04T08:56:54.848Z,1.70
2019-04-04T08:59:22.443Z,1.80
2019-04-04T09:01:49.708Z,1.72
2019-04-04T09:04:16.907Z,1.98
2019-04-04T09:06:44.235Z,2.15
2019-04-04T09:09:11.505Z,1.45
2019-04-04T09:11:38.701Z,1.65
2019-04-04T09:14:06.146Z,1.12
2019-04-04T09:16:33.418Z,1.98
2019-04-04T09:19:00.689Z,1.52
2019-04-04T09:21:28.173Z,1.60
2019-04-04T09:23:55.396Z,1.52
2019-04-04T09:26:22.614Z,2.30
2019-04-04T09:28:49.904Z,1.70
2019-04-04T09:31:17.179Z,1.37
2019-04-04T09:33:44.401Z,1.17
2019-04-04T09:36:11.602Z,0.95
2019-04-04T09:38:38.870Z,1.10
2019-04-04T09:41:06.201Z,1.32
2019-04-04T09:43:33.476Z,1.10
2019-04-04T09:46:00.784Z,0.80
2019-04-04T09:48:28.324Z,0.90
2019-04-04T09:50:55.629Z,1.32
2019-04-04T09:53:22.898Z,0.60
2019-04-04T09:55:50.192Z,1.60
2019-04-04T09:58:17.396Z,1.20
2019-04-04T10:00:45.554Z,1.40
2019-04-04T10:03:12.829Z,1.50
2019-04-04T10:05:40.128Z,1.50
2019-04-04T10:08:07.328Z,1.10
2019-04-04T10:10:35.176Z,1.60
2019-04-04T10:13:02.769Z,1.07
2019-04-04T10:15:29.995Z,1.45
2019-04-04T10:17:57.325Z,0.98
2019-04-04T10:20:24.578Z,1.73
2019-04-04T10:22:51.845Z,1.10
2019-04-04T10:25:19.072Z,1.10
2019-04-04T10:27:46.267Z,0.90
2019-04-04T10:30:13.984Z,0.80
2019-04-04T10:32:41.624Z,1.07
2019-04-04T10:35:09.531Z,1.00
2019-04-04T10:37:36.748Z,0.45
2019-04-04T10:40:05.501Z,0.50
2019-04-04T10:42:32.874Z,0.90
2019-04-04T10:45:00.228Z,1.42
2019-04-04T10:47:27.566Z,0.78
2019-04-04T10:49:54.834Z,1.10
2019-04-04T10:52:22.337Z,1.10
2019-04-04T10:54:49.671Z,0.72
2019-04-04T10:57:17.924Z,0.70
2019-04-04T10:59:45.253Z,0.70
2019-04-04T11:02:12.472Z,0.88
2019-04-04T11:04:39.940Z,0.80
2019-04-04T11:07:07.743Z,0.50
2019-04-04T11:09:41.984Z,0.75
2019-04-04T11:12:04.181Z,0.60
2019-04-04T11:14:31.468Z,1.30
2019-04-04T11:16:59.028Z,0.80
2019-04-04T11:19:31.323Z,0.70
2019-04-04T11:21:55.164Z,0.82
2019-04-04T11:24:22.438Z,0.70
2019-04-04T11:26:49.732Z,1.10
2019-04-04T11:29:16.928Z,1.42
2019-04-04T11:31:44.496Z,0.90
2019-04-04T11:34:11.753Z,0.82
2019-04-04T11:36:39.160Z,1.10
2019-04-04T11:39:06.778Z,0.75
2019-04-04T11:41:34.113Z,1.32
2019-04-04T11:44:01.453Z,0.98
2019-04-04T11:46:28.671Z,1.40
2019-04-04T11:48:55.871Z,1.00
2019-04-04T11:51:23.179Z,1.80
2019-04-04T11:53:50.440Z,2.10
2019-04-04T11:56:17.685Z,2.00
2019-04-04T11:58:45.095Z,1.45
2019-04-04T12:01:14.120Z,2.02
2019-04-04T12:03:41.344Z,1.30
2019-04-04T12:06:08.809Z,1.57
2019-04-04T12:08:36.289Z,1.52
2019-04-04T12:11:04.421Z,1.62
2019-04-04T12:13:31.793Z,1.42
2019-04-04T12:15:59.184Z,1.50
2019-04-04T12:18:26.481Z,1.50
2019-04-04T12:20:53.684Z,1.37
2019-04-04T12:23:21.246Z,1.22
2019-04-04T12:25:48.605Z,1.10
2019-04-04T12:28:16.221Z,1.12
2019-04-04T12:30:43.492Z,1.25
2019-04-04T12:33:10.736Z,1.20
2019-04-04T12:35:38.193Z,1.00
2019-04-04T12:38:05.421Z,2.52
2019-04-04T12:40:32.952Z,1.67
2019-04-04T12:43:00.250Z,1.30
2019-04-04T12:45:27.445Z,1.57
2019-04-04T12:47:54.671Z,1.90
2019-04-04T12:50:21.878Z,1.55
2019-04-04T12:52:49.455Z,1.47
2019-04-04T12:55:16.713Z,1.00
2019-04-04T12:57:44.209Z,0.85
2019-04-04T13:00:11.408Z,0.42
2019-04-04T13:02:39.740Z,0.80
2019-04-04T13:05:07.415Z,0.40
2019-04-04T13:07:34.742Z,0.50
2019-04-04T13:10:11.394Z,0.60
2019-04-04T13:12:31.198Z,0.70
2019-04-04T13:14:58.496Z,1.00
2019-04-04T13:17:25.966Z,0.70
2019-04-04T13:19:53.184Z,0.50
2019-04-04T13:22:20.462Z,0.70
2019-04-04T13:24:47.685Z,0.70
2019-04-04T13:27:17.611Z,0.90
2019-04-04T13:29:44.092Z,0.70
2019-04-04T13:32:11.616Z,0.70
2019-04-04T13:34:38.837Z,0.60
2019-04-04T13:37:06.341Z,0.20
2019-04-04T13:39:33.611Z,0.50
2019-04-04T13:42:00.813Z,0.50
2019-04-04T13:44:28.176Z,0.50
2019-04-04T13:46:55.443Z,0.50
2019-04-04T13:49:22.993Z,0.40
2019-04-04T13:51:50.909Z,0.70
2019-04-04T13:54:19.456Z,0.98
2019-04-04T13:56:46.648Z,0.60
2019-04-04T13:59:14.059Z,1.00
2019-04-04T14:01:42.885Z,1.20
2019-04-04T14:04:10.381Z,1.10
2019-04-04T14:06:38.270Z,0.70
2019-04-04T14:09:07.078Z,0.70
2019-04-04T14:11:34.370Z,0.50
2019-04-04T14:14:03.142Z,0.40
2019-04-04T14:16:30.629Z,0.60
2019-04-04T14:18:58.111Z,0.55
2019-04-04T14:21:26.191Z,0.60
2019-04-04T14:23:56.683Z,0.80
2019-04-04T14:26:22.725Z,0.72
2019-04-04T14:28:49.997Z,0.72
2019-04-04T14:31:17.297Z,0.62
2019-04-04T14:33:44.505Z,1.07
2019-04-04T14:36:11.731Z,1.00
2019-04-04T14:38:38.924Z,1.10
2019-04-04T14:41:11.416Z,0.80
2019-04-04T14:43:35.055Z,0.65
2019-04-04T14:46:02.277Z,0.80
2019-04-04T14:48:29.478Z,0.70
2019-04-04T14:50:56.775Z,0.72
2019-04-04T14:53:25.990Z,0.90
2019-04-04T14:55:53.252Z,0.80
2019-04-04T14:58:20.585Z,0.70
2019-04-04T15:00:48.116Z,0.60
2019-04-04T15:03:15.668Z,1.00
2019-04-04T15:05:43.125Z,0.90
2019-04-04T15:08:10.450Z,0.62
2019-04-04T15:10:39.119Z,0.40
2019-04-04T15:13:06.608Z,0.80
2019-04-04T15:15:34.042Z,0.60
2019-04-04T15:18:01.309Z,0.70
2019-04-04T15:20:28.585Z,0.95
2019-04-04T15:22:56.243Z,0.80
2019-04-04T15:25:23.441Z,0.60
2019-04-04T15:27:50.730Z,0.37
2019-04-04T15:30:18.146Z,0.20
2019-04-04T15:32:45.439Z,0.70
2019-04-04T15:35:12.711Z,0.60
2019-04-04T15:37:40.209Z,0.53
2019-04-04T15:40:08.107Z,0.80
2019-04-04T15:42:35.676Z,1.00
2019-04-04T15:45:03.518Z,0.95
2019-04-04T15:47:30.997Z,1.20
2019-04-04T15:49:58.570Z,0.90
2019-04-04T15:52:26.070Z,0.50
2019-04-04T15:54:53.905Z,0.50
2019-04-04T15:57:21.134Z,0.50
2019-04-04T15:59:48.421Z,0.30
2019-04-04T16:02:15.725Z,0.35
2019-04-04T16:04:42.992Z,0.42
2019-04-04T16:07:10.654Z,0.50
2019-04-04T16:09:37.933Z,0.35
2019-04-04T16:12:05.164Z,0.50
2019-04-04T16:14:32.693Z,0.60
2019-04-04T16:16:59.916Z,0.40
2019-04-04T16:19:27.441Z,0.50
2019-04-04T16:21:54.752Z,0.42
2019-04-04T16:24:22.022Z,0.68
2019-04-04T16:26:49.326Z,0.50
2019-04-04T16:29:16.536Z,0.30
2019-04-04T16:31:43.835Z,0.80
2019-04-04T16:34:11.284Z,0.57
2019-04-04T16:36:38.481Z,0.40
2019-04-04T16:39:07.072Z,0.70
2019-04-04T16:41:34.352Z,0.95
2019-04-04T16:44:01.632Z,0.60
2019-04-04T16:46:29.084Z,0.40
2019-04-04T16:48:56.424Z,0.42
2019-04-04T16:51:24.528Z,0.50
2019-04-04T16:53:51.964Z,0.50
2019-04-04T16:56:19.234Z,0.70
2019-04-04T16:58:46.503Z,0.70
2019-04-04T17:01:13.744Z,0.53
2019-04-04T17:03:40.991Z,0.40
2019-04-04T17:06:08.274Z,1.00
2019-04-04T17:08:35.569Z,0.80
2019-04-04T17:11:02.771Z,0.70
2019-04-04T17:13:30.065Z,0.53
2019-04-04T17:15:57.337Z,0.70
2019-04-04T17:18:24.655Z,0.80
2019-04-04T17:20:51.939Z,0.60
2019-04-04T17:23:19.233Z,0.50
2019-04-04T17:25:46.873Z,0.50
2019-04-04T17:28:14.487Z,0.47
2019-04-04T17:30:41.745Z,0.30
2019-04-04T17:33:09.265Z,0.40
2019-04-04T17:35:36.542Z,0.20
2019-04-04T17:38:03.901Z,0.30
2019-04-04T17:40:31.246Z,0.23
2019-04-04T17:42:58.837Z,0.50
2019-04-04T17:45:26.356Z,0.30
2019-04-04T17:47:53.731Z,0.40
2019-04-04T17:50:21.036Z,0.40
2019-04-04T17:52:48.282Z,0.68
2019-04-04T17:55:15.537Z,0.43
2019-04-04T17:57:43.288Z,0.40
2019-04-04T18:00:11.120Z,0.60
2019-04-04T18:02:38.385Z,1.02
2019-04-04T18:05:07.804Z,1.10
2019-04-04T18:07:35.077Z,0.65
2019-04-04T18:10:02.311Z,0.70
2019-04-04T18:12:39.625Z,0.40
2019-04-04T18:14:58.529Z,1.10
2019-04-04T18:17:25.803Z,1.80
2019-04-04T18:19:53.097Z,1.98
2019-04-04T18:22:20.881Z,1.50
2019-04-04T18:24:48.193Z,1.10
2019-04-04T18:27:15.406Z,1.42
2019-04-04T18:29:42.967Z,2.50
2019-04-04T18:32:10.240Z,2.20
2019-04-04T18:34:37.476Z,1.72
2019-04-04T18:37:04.732Z,1.55
2019-04-04T18:39:31.970Z,1.65
2019-04-04T18:41:59.229Z,1.82
2019-04-04T18:44:26.458Z,1.32
2019-04-04T18:46:53.662Z,1.70
2019-04-04T18:49:20.959Z,2.27
2019-04-04T18:51:48.160Z,2.50
2019-04-04T18:54:15.433Z,1.60
2019-04-04T18:56:42.728Z,1.30
2019-04-04T18:59:09.925Z,2.35
2019-04-04T19:01:37.253Z,1.95
2019-04-04T19:04:04.449Z,2.60
2019-04-04T19:06:31.857Z,2.05
2019-04-04T19:08:59.124Z,2.12
2019-04-04T19:11:26.352Z,3.33
2019-04-04T19:13:53.545Z,2.70
2019-04-04T19:16:20.878Z,2.00
2019-04-04T19:18:48.124Z,1.47
2019-04-04T19:21:15.352Z,2.40
2019-04-04T19:23:49.259Z,2.58
2019-04-04T19:26:11.594Z,1.80
2019-04-04T19:28:38.796Z,2.47
2019-04-04T19:31:06.265Z,3.37
2019-04-04T19:33:33.533Z,2.20
2019-04-04T19:36:00.836Z,2.75
2019-04-04T19:38:28.063Z,1.72
2019-04-04T19:40:55.364Z,2.40
2019-04-04T19:43:22.564Z,2.17
2019-04-04T19:45:50.122Z,1.47
2019-04-04T19:48:17.396Z,1.60
2019-04-04T19:50:44.635Z,1.37
2019-04-04T19:53:11.901Z,1.20
2019-04-04T19:55:39.133Z,0.90
2019-04-04T19:58:06.332Z,1.10
2019-04-04T20:00:33.611Z,1.05
2019-04-04T20:03:00.909Z,0.90
2019-04-04T20:05:28.176Z,0.50
2019-04-04T20:07:56.090Z,0.65
2019-04-04T20:10:23.359Z,1.30
2019-04-04T20:12:50.587Z,1.77
2019-04-04T20:15:17.857Z,1.40
2019-04-04T20:17:45.078Z,1.25
2019-04-04T20:20:12.278Z,1.10
2019-04-04T20:22:39.501Z,1.10
2019-04-04T20:25:06.696Z,1.20
2019-04-04T20:27:33.917Z,0.60
2019-04-04T20:30:01.451Z,0.70
2019-04-04T20:32:28.706Z,0.85
2019-04-04T20:34:55.986Z,1.10
2019-04-04T20:37:23.293Z,0.60
2019-04-04T20:39:50.685Z,1.40
2019-04-04T20:42:17.968Z,2.83
2019-04-04T20:44:45.242Z,1.62
2019-04-04T20:47:12.471Z,2.40
2019-04-04T20:49:39.678Z,1.85
2019-04-04T20:52:06.904Z,2.20
2019-04-04T20:54:34.180Z,2.20
2019-04-04T20:57:01.480Z,1.60
2019-04-04T20:59:28.677Z,1.60
2019-04-04T21:01:56.241Z,0.80
2019-04-04T21:04:23.442Z,0.70
2019-04-04T21:06:50.636Z,0.72
2019-04-04T21:09:17.862Z,0.60
2019-04-04T21:11:45.158Z,1.20
2019-04-04T21:14:12.442Z,0.65
2019-04-04T21:16:39.722Z,1.10
2019-04-04T21:19:07.046Z,0.90
2019-04-04T21:21:34.326Z,2.30
2019-04-04T21:24:01.542Z,2.70
2019-04-04T21:26:29.212Z,1.60
2019-04-04T21:28:56.414Z,1.20
2019-04-04T21:31:23.615Z,1.10
2019-04-04T21:33:51.289Z,0.90
2019-04-04T21:36:18.558Z,0.78
2019-04-04T21:38:46.119Z,1.15
2019-04-04T21:41:13.501Z,1.02
2019-04-04T21:43:40.696Z,1.02
2019-04-04T21:46:07.984Z,0.78
2019-04-04T21:48:35.304Z,1.02
2019-04-04T21:51:02.511Z,1.05
2019-04-04T21:53:29.806Z,1.10
2019-04-04T21:55:57.174Z,1.05
2019-04-04T21:58:24.456Z,1.20
2019-04-04T22:00:51.929Z,1.30
2019-04-04T22:03:19.473Z,1.20
2019-04-04T22:05:46.671Z,1.20
2019-04-04T22:08:13.958Z,1.45
2019-04-04T22:10:41.345Z,1.25
2019-04-04T22:13:08.648Z,1.55
2019-04-04T22:15:36.196Z,1.10
2019-04-04T22:18:03.785Z,0.80
2019-04-04T22:20:31.257Z,1.00
2019-04-04T22:22:58.461Z,0.68
2019-04-04T22:25:25.768Z,0.60
2019-04-04T22:27:52.963Z,0.90
2019-04-04T22:30:20.174Z,1.03
2019-04-04T22:32:47.822Z,1.75
2019-04-04T22:35:15.098Z,1.32
2019-04-04T22:37:42.477Z,1.37
2019-04-04T22:40:10.076Z,1.95
2019-04-04T22:42:37.272Z,1.85
2019-04-04T22:45:05.552Z,2.33
2019-04-04T22:47:32.852Z,1.45
2019-04-04T22:50:00.048Z,1.52
2019-04-04T22:52:27.256Z,1.30
2019-04-04T22:54:54.842Z,1.07
2019-04-04T22:57:22.116Z,1.12
2019-04-04T22:59:49.312Z,0.85
2019-04-04T23:02:16.654Z,0.75
2019-04-04T23:04:43.904Z,0.70
2019-04-04T23:07:11.124Z,0.60
2019-04-04T23:09:38.508Z,0.90
2019-04-04T23:12:05.718Z,1.10
2019-04-04T23:14:33.241Z,1.27
2019-04-04T23:17:00.473Z,1.30
2019-04-04T23:19:27.669Z,0.70
2019-04-04T23:21:54.864Z,0.50
2019-04-04T23:24:22.443Z,0.80
2019-04-04T23:26:49.716Z,1.25
2019-04-04T23:29:16.987Z,1.70
2019-04-04T23:31:44.375Z,1.80
2019-04-04T23:34:11.640Z,1.30
2019-04-04T23:36:38.912Z,0.78
2019-04-04T23:39:06.505Z,1.15
2019-04-04T23:41:33.776Z,1.15
2019-04-04T23:44:00.973Z,1.00
2019-04-04T23:46:28.466Z,0.78
2019-04-04T23:48:55.736Z,0.80
2019-04-04T23:51:22.938Z,0.60
2019-04-04T23:53:50.251Z,0.50
2019-04-04T23:56:17.456Z,0.50
2019-04-04T23:58:44.918Z,0.40
